Flight Track Log - Related Links

Times and Time Zones

All times are in EDT time to prevent confusion due to time zone crossing. See the SKW5631 flight status page for this flight to view local times or setup timezone preferences in your user account.

Time Position Orientation Groundspeed Altitude Reporting Facility
EDT Latitude Longitude Course Direction KTS MPH feet Rate Location/Type
Sat 02:30:08 PM 37.6833 -122.3667 133° Southeast 197 227 2,300  Level Northern Cal TRACON
Sat 02:30:32 PM 37.6964 -122.3636 10° North 199 229 2,900 2,182 Climbing Oakland Center
Sat 02:31:03 PM 37.7167 -122.4000 305° West 257 296 4,300 2,901 Climbing Northern Cal TRACON
Sat 02:32:03 PM 37.6833 -122.4500 230° Southwest 264 304 7,300 2,750 Climbing Northern Cal TRACON
Sat 02:33:03 PM 37.6000 -122.4667 189° South 283 326 9,800 2,043 Climbing Northern Cal TRACON
Sat 02:33:37 PM 37.5639 -122.4617 174° South 285 328 10,500 1,453 Climbing Oakland Center
Sat 02:34:38 PM 37.5031 -122.3742 131° Southeast 345 397 12,100 2,098 Climbing Oakland Center
Sat 02:35:00 PM 37.2396 -122.0694 133° Southeast  Level FlightAware Approximate
Sat 02:35:40 PM 37.4294 -122.2569 128° Southeast 360 414 14,800  Level Oakland Center
Sat 02:36:41 PM 37.3650 -122.1539 128° Southeast 373 429 16,900 1,805 Climbing Oakland Center
Sat 02:37:43 PM 37.2975 -122.0467 128° Southeast 389 448 18,500 1,610 Climbing Oakland Center
Sat 02:38:44 PM 37.2289 -121.9383 128° Southeast 398 458 20,200 1,610 Climbing Oakland Center
Sat 02:39:46 PM 37.1475 -121.8347 135° Southeast 418 481 21,800 1,561 Climbing Oakland Center
Sat 02:40:47 PM 37.0519 -121.7481 144° Southeast 423 487 23,400 1,574 Climbing Oakland Center
Sat 02:41:48 PM 36.9542 -121.6586 144° Southeast 434 499 25,000 1,463 Climbing Oakland Center
Sat 02:42:50 PM 36.8594 -121.5650 142° Southeast 435 501 26,400 976 Climbing Oakland Center
Sat 02:43:51 PM 36.7553 -121.4600 141° Southeast 449 517 27,000 585 Climbing Oakland Center
Sat 02:44:53 PM 36.6611 -121.3478 136° Southeast 466 536 27,600 829 Climbing Oakland Center
Sat 02:45:54 PM 36.5839 -121.2153 126° Southeast 475 547 28,700 1,171 Climbing Oakland Center
Sat 02:46:56 PM 36.4917 -121.0578 126° Southeast 471 542 30,000 1,073 Climbing Oakland Center
Sat 02:47:57 PM 36.4139 -120.9278 127° Southeast 469 540 30,900 488 Climbing Oakland Center
Sat 02:48:59 PM 36.3353 -120.7978 127° Southeast 471 542 31,000 49 Climbing Oakland Center
Sat 02:50:00 PM 36.2553 -120.6642 127° Southeast 478 550 31,000  Level Oakland Center
Sat 02:51:02 PM 36.1747 -120.5306 127° Southeast 482 555 31,000  Level Oakland Center
Sat 02:52:03 PM 36.0928 -120.3931 126° Southeast 499 574 31,000  Level Oakland Center
Sat 02:53:04 PM 36.0117 -120.2592 127° Southeast 484 557 31,000  Level Oakland Center
Sat 02:54:06 PM 35.9303 -120.1283 128° Southeast 480 552 31,000  Level Oakland Center
Sat 02:55:07 PM 35.8483 -119.9931 127° Southeast 487 560 31,000  Level Oakland Center
Sat 02:56:09 PM 35.7664 -119.8608 127° Southeast 485 558 31,000  Level Oakland Center
Sat 02:57:10 PM 35.6675 -119.7003 127° Southeast 486 559 31,000  Level Oakland Center
Sat 02:58:12 PM 35.5850 -119.5683 128° Southeast 485 558 31,000  Level Oakland Center
Sat 02:59:13 PM 35.5031 -119.4369 127° Southeast 483 556 31,000  Level Oakland Center
Sat 03:00:15 PM 35.4206 -119.3039 127° Southeast 487 560 31,000  Level Oakland Center
Sat 03:00:31 PM 35.4053 -119.2786 127° Southeast 488 562 31,000  Level Los Angeles Center
Sat 03:01:33 PM 35.3244 -119.1489 127° Southeast 484 557 31,000  Level Los Angeles Center
Sat 03:02:35 PM 35.2425 -119.0178 127° Southeast 483 556 31,000 -48 Level Los Angeles Center
Sat 03:03:37 PM 35.1414 -118.8608 128° Southeast 489 563 30,900 -387 Descending Los Angeles Center
Sat 03:04:39 PM 35.0589 -118.7308 128° Southeast 485 558 30,200 -1,161 Descending Los Angeles Center
Sat 03:05:41 PM 34.9775 -118.6028 128° Southeast 480 552 28,500 -1,500 Descending Los Angeles Center
Sat 03:06:43 PM 34.8992 -118.4814 128° Southeast 475 547 27,100 -1,452 Descending Los Angeles Center
Sat 03:07:45 PM 34.8150 -118.3522 128° Southeast 484 557 25,500 -1,500 Descending Los Angeles Center
Sat 03:08:47 PM 34.7336 -118.2231 127° Southeast 481 554 24,000 -1,210 Descending Los Angeles Center
Sat 03:09:49 PM 34.6378 -118.0764 128° Southeast 472 543 23,000 -726 Descending Los Angeles Center
Sat 03:10:51 PM 34.5778 -117.9472 119° Southeast 448 516 22,500 -823 Descending Los Angeles Center
Sat 03:11:53 PM 34.5161 -117.8158 120° Southeast 452 520 21,300 -1,161 Descending Los Angeles Center
Sat 03:12:55 PM 34.4561 -117.6853 119° Southeast 448 516 20,100 -1,248 Descending Los Angeles Center
Sat 03:13:58 PM 34.3864 -117.5331 119° Southeast 435 501 18,700 -1,152 Descending Los Angeles Center
Sat 03:15:00 PM 34.3278 -117.4017 118° Southeast 418 481 17,700 -774 Descending Los Angeles Center
Sat 03:16:02 PM 34.2706 -117.2800 120° Southeast 416 479 17,100 -823 Descending Los Angeles Center
Sat 03:17:04 PM 34.2208 -117.1733 119° Southeast 405 466 16,000 -919 Descending Los Angeles Center
Sat 03:18:06 PM 34.1683 -117.0631 120° Southeast 384 442 15,200 -634 Descending Los Angeles Center
Sat 03:19:07 PM 34.1228 -116.9672 120° Southeast 342 394 14,700 -532 Descending Los Angeles Center
Sat 03:20:10 PM 34.0692 -116.8486 119° Southeast 335 386 14,100 -288 Descending Los Angeles Center
Sat 03:21:12 PM 34.0203 -116.7436 119° Southeast 351 404 14,100 -98 Level Los Angeles Center
Sat 03:22:13 PM 33.9811 -116.6631 120° Southeast 351 404 13,900 -1,161 Descending Los Angeles Center
Sat 03:23:16 PM 33.9328 -116.5428 116° Southeast 337 388 11,700 -2,064 Descending Los Angeles Center
Sat 03:24:18 PM 33.9017 -116.4456 111° Southeast 307 353 9,600 -2,336 Descending Los Angeles Center
Sat 03:25:45 PM 33.8317 -116.3375 128° Southeast 217 250 5,900 -1,450 Descending Los Angeles Center
Sat 03:26:47 PM 33.7828 -116.2956 145° Southeast 223 257 6,000 -1,031 Climbing Los Angeles Center
Sat 03:28:57 PM 33.7667 -116.4167 261° West 155 178 2,600 -1,414 Descending Southern California TRACON
Sat 03:29:58 PM 33.7833 -116.4667 292° West 150 173 1,500 -893 Descending Southern California TRACON
Sat 03:30:58 PM 33.8167 -116.5000 320° Northwest 145 167 800 -700 Descending Southern California TRACON
Sat 03:32:00 PM 33.8297 -116.5067 105° East  Level Estimated
Sat 03:39:00 PM 33.8297 -116.5067 286° West  Level Estimated

Login

Don't have an account? Register now (free) for customized features, flight alerts, and more!